createdAt,value
2023-04-21T00:02:20.280Z,100655.55
2023-04-21T00:04:47.244Z,100655.30
2023-04-21T00:07:16.743Z,100655.27
2023-04-21T00:09:43.325Z,100653.80
2023-04-21T00:12:09.934Z,100649.98
2023-04-21T00:14:36.459Z,100649.98
2023-04-21T00:17:03.227Z,100650.13
2023-04-21T00:19:30.615Z,100653.56
2023-04-21T00:21:59.698Z,100656.10
2023-04-21T00:24:26.376Z,100654.52
2023-04-21T00:26:53.062Z,100653.80
2023-04-21T00:29:22.472Z,100652.66
2023-04-21T00:31:49.969Z,100652.56
2023-04-21T00:34:16.699Z,100653.22
2023-04-21T00:36:43.369Z,100654.25
2023-04-21T00:39:09.940Z,100653.41
2023-04-21T00:41:36.967Z,100652.49
2023-04-21T00:44:05.591Z,100650.99
2023-04-21T00:46:33.738Z,100648.24
2023-04-21T00:49:03.196Z,100647.77
2023-04-21T00:51:33.187Z,100648.77
2023-04-21T00:54:02.349Z,100647.61
2023-04-21T00:56:31.998Z,100641.73
2023-04-21T00:59:00.449Z,100642.16
2023-04-21T01:01:29.931Z,100637.77
2023-04-21T01:04:01.585Z,100642.36
2023-04-21T01:06:32.319Z,100643.99
2023-04-21T01:08:58.888Z,100641.89
2023-04-21T01:11:26.274Z,100638.33
2023-04-21T01:13:56.705Z,100641.23
2023-04-21T01:16:24.298Z,100642.39
2023-04-21T01:18:53.732Z,100645.47
2023-04-21T01:21:21.810Z,100645.13
2023-04-21T01:23:48.681Z,100646.52
2023-04-21T01:26:19.086Z,100646.58
2023-04-21T01:28:47.651Z,100647.75
2023-04-21T01:31:16.525Z,100651.38
2023-04-21T01:33:43.394Z,100649.39
2023-04-21T01:36:13.454Z,100648.20
2023-04-21T01:38:41.433Z,100648.15
2023-04-21T01:41:09.388Z,100648.76
2023-04-21T01:43:37.062Z,100642.73
2023-04-21T01:46:05.020Z,100645.98
2023-04-21T01:48:31.703Z,100649.31
2023-04-21T01:50:58.981Z,100646.15
2023-04-21T01:53:26.855Z,100648.60
2023-04-21T01:55:53.433Z,100646.91
2023-04-21T01:58:21.142Z,100644.79
2023-04-21T02:00:47.829Z,100646.80
2023-04-21T02:03:14.512Z,100643.80
2023-04-21T02:05:41.164Z,100642.79
2023-04-21T02:08:07.897Z,100639.16
2023-04-21T02:10:34.638Z,100634.67
2023-04-21T02:13:01.193Z,100634.39
2023-04-21T02:20:06.981Z,100636.53
2023-04-21T02:22:33.742Z,100638.39
2023-04-21T02:25:02.972Z,100637.20
2023-04-21T02:27:29.668Z,100639.48
2023-04-21T02:29:59.477Z,100644.18
2023-04-21T02:32:26.438Z,100643.66
2023-04-21T02:34:53.159Z,100640.92
2023-04-21T02:37:20.370Z,100635.41
2023-04-21T02:39:46.924Z,100632.36
2023-04-21T02:42:13.477Z,100631.42
2023-04-21T02:44:40.049Z,100632.25
2023-04-21T02:47:06.890Z,100630.05
2023-04-21T02:49:33.501Z,100628.83
2023-04-21T02:51:59.985Z,100629.82
2023-04-21T02:54:26.765Z,100628.46
2023-04-21T02:56:53.313Z,100630.52
2023-04-21T02:59:20.094Z,100630.27
2023-04-21T03:01:49.109Z,100628.80
2023-04-21T03:04:15.828Z,100631.91
2023-04-21T03:06:42.614Z,100629.14
2023-04-21T03:09:09.142Z,100626.63
2023-04-21T03:11:35.857Z,100624.21
2023-04-21T03:14:02.413Z,100623.80
2023-04-21T03:16:29.529Z,100626.38
2023-04-21T03:18:56.214Z,100629.83
2023-04-21T03:21:22.735Z,100628.91
2023-04-21T03:23:49.278Z,100629.00
2023-04-21T03:26:16.462Z,100626.56
2023-04-21T03:28:43.432Z,100627.13
2023-04-21T03:31:09.958Z,100626.55
2023-04-21T03:33:36.578Z,100628.20
2023-04-21T03:36:03.217Z,100631.65
2023-04-21T03:38:29.955Z,100629.55
2023-04-21T03:40:56.907Z,100630.38
2023-04-21T03:43:23.448Z,100633.97
2023-04-21T03:45:50.016Z,100636.52
2023-04-21T03:48:21.160Z,100637.98
2023-04-21T03:50:47.772Z,100638.55
2023-04-21T03:53:14.835Z,100637.16
2023-04-21T03:55:41.414Z,100638.45
2023-04-21T03:58:08.027Z,100639.19
2023-04-21T04:00:34.797Z,100638.79
2023-04-21T04:03:01.429Z,100640.76
2023-04-21T04:05:28.394Z,100642.63
2023-04-21T04:07:54.987Z,100645.90
2023-04-21T04:10:21.518Z,100647.22
2023-04-21T04:12:48.049Z,100647.81
2023-04-21T04:15:15.535Z,100653.11
2023-04-21T04:17:42.212Z,100655.98
2023-04-21T04:20:11.301Z,100655.71
2023-04-21T04:22:38.036Z,100654.11
2023-04-21T04:25:05.503Z,100659.45
2023-04-21T04:27:32.357Z,100659.27
2023-04-21T04:29:59.210Z,100663.23
2023-04-21T04:32:29.309Z,100665.63
2023-04-21T04:34:55.889Z,100664.44
2023-04-21T04:37:22.737Z,100662.55
2023-04-21T04:39:50.386Z,100664.74
2023-04-21T04:42:17.434Z,100666.20
2023-04-21T04:44:44.162Z,100665.81
2023-04-21T04:47:10.687Z,100672.34
2023-04-21T04:49:37.308Z,100673.35
2023-04-21T04:52:04.298Z,100673.38
2023-04-21T04:54:30.917Z,100676.70
2023-04-21T04:56:58.086Z,100673.41
2023-04-21T04:59:24.731Z,100675.23
2023-04-21T05:01:51.564Z,100672.70
2023-04-21T05:04:18.590Z,100674.64
2023-04-21T05:06:45.661Z,100673.27
2023-04-21T05:09:14.663Z,100674.67
2023-04-21T05:11:42.039Z,100673.73
2023-04-21T05:14:08.708Z,100670.28
2023-04-21T05:16:35.861Z,100668.42
2023-04-21T05:19:03.535Z,100667.63
2023-04-21T05:21:31.289Z,100668.04
2023-04-21T05:23:59.215Z,100669.37
2023-04-21T05:26:27.580Z,100667.90
2023-04-21T05:28:58.708Z,100667.49
2023-04-21T05:31:26.400Z,100666.73
2023-04-21T05:33:53.441Z,100663.27
2023-04-21T05:36:20.482Z,100664.31
2023-04-21T05:38:47.612Z,100663.54
2023-04-21T05:41:14.277Z,100661.86
2023-04-21T05:43:40.921Z,100662.85
2023-04-21T05:46:11.456Z,100662.48
2023-04-21T05:48:38.498Z,100660.55
2023-04-21T05:51:12.836Z,100663.80
2023-04-21T05:53:40.081Z,100668.96
2023-04-21T05:56:09.948Z,100671.24
2023-04-21T05:58:42.396Z,100670.84
2023-04-21T06:01:11.468Z,100672.54
2023-04-21T06:03:40.357Z,100675.77
2023-04-21T06:06:10.416Z,100673.30
2023-04-21T06:08:39.296Z,100668.70
2023-04-21T06:11:07.816Z,100672.25
2023-04-21T06:13:38.848Z,100668.77
2023-04-21T06:16:09.127Z,100665.32
2023-04-21T06:18:38.398Z,100659.23
2023-04-21T06:21:07.300Z,100660.20
2023-04-21T06:23:36.359Z,100660.15
2023-04-21T06:26:07.804Z,100655.90
2023-04-21T06:28:39.361Z,100656.48
2023-04-21T06:31:09.909Z,100655.79
2023-04-21T06:33:38.384Z,100658.45
2023-04-21T06:36:07.064Z,100658.41
2023-04-21T06:38:36.096Z,100656.17
2023-04-21T06:41:04.690Z,100656.25
2023-04-21T06:43:34.313Z,100654.39
2023-04-21T06:46:03.689Z,100657.05
2023-04-21T06:48:33.340Z,100658.30
2023-04-21T06:51:02.914Z,100654.98
2023-04-21T06:53:31.639Z,100654.26
2023-04-21T07:05:56.373Z,100655.42
2023-04-21T07:08:23.022Z,100656.09
2023-04-21T07:10:49.863Z,100651.15
2023-04-21T07:13:17.883Z,100653.40
2023-04-21T07:15:44.626Z,100648.70
2023-04-21T07:18:11.235Z,100647.97
2023-04-21T07:20:38.043Z,100646.59
2023-04-21T07:23:04.935Z,100648.49
2023-04-21T07:25:31.494Z,100645.42
2023-04-21T07:27:58.110Z,100650.88
2023-04-21T07:30:24.779Z,100649.34
2023-04-21T07:32:51.646Z,100649.52
2023-04-21T07:35:18.517Z,100652.04
2023-04-21T07:37:45.639Z,100649.70
2023-04-21T07:40:12.276Z,100647.27
2023-04-21T07:42:39.509Z,100644.43
2023-04-21T07:45:07.223Z,100644.39
2023-04-21T07:47:33.837Z,100641.67
2023-04-21T07:50:00.528Z,100640.79
2023-04-21T07:52:27.330Z,100635.92
2023-04-21T07:54:53.927Z,100632.71
2023-04-21T07:57:20.512Z,100634.77
2023-04-21T07:59:47.099Z,100635.60
2023-04-21T08:02:13.793Z,100631.36
2023-04-21T08:04:40.412Z,100630.32
2023-04-21T08:07:07.486Z,100630.56
2023-04-21T08:09:34.363Z,100632.58
2023-04-21T08:12:02.247Z,100627.70
2023-04-21T08:14:29.170Z,100621.66
2023-04-21T08:16:57.289Z,100623.42
2023-04-21T08:19:24.626Z,100621.21
2023-04-21T08:21:51.233Z,100620.84
2023-04-21T08:24:17.896Z,100622.44
2023-04-21T08:26:45.139Z,100620.48
2023-04-21T08:29:13.430Z,100617.34
2023-04-21T08:31:40.253Z,100616.53
2023-04-21T08:34:07.383Z,100616.25
2023-04-21T08:36:34.552Z,100617.98
2023-04-21T08:39:01.846Z,100613.27
2023-04-21T08:41:28.482Z,100616.09
2023-04-21T08:43:55.803Z,100612.16
2023-04-21T08:46:23.433Z,100614.41
2023-04-21T08:48:50.070Z,100610.96
2023-04-21T08:51:24.318Z,100614.10
2023-04-21T08:53:51.925Z,100616.31
2023-04-21T08:56:18.851Z,100612.55
2023-04-21T08:58:45.389Z,100614.14
2023-04-21T09:01:12.313Z,100611.31
2023-04-21T09:03:39.253Z,100611.13
2023-04-21T09:06:09.604Z,100601.06
2023-04-21T09:08:43.407Z,100603.49
2023-04-21T09:11:14.448Z,100600.52
2023-04-21T09:13:43.229Z,100602.09
2023-04-21T09:16:21.766Z,100601.20
2023-04-21T09:18:50.261Z,100586.34
2023-04-21T09:21:19.731Z,100591.34
2023-04-21T09:23:48.567Z,100590.64
2023-04-21T09:26:16.539Z,100586.56
2023-04-21T09:28:45.163Z,100587.60
2023-04-21T09:31:29.203Z,100586.75
2023-04-21T09:34:01.072Z,100584.79
2023-04-21T09:36:30.791Z,100579.86
2023-04-21T09:39:29.186Z,100581.16
2023-04-21T09:41:49.615Z,100584.80
2023-04-21T09:44:17.723Z,100585.05
2023-04-21T09:46:50.060Z,100580.15
2023-04-21T09:49:22.713Z,100579.71
2023-04-21T09:52:14.646Z,100576.96
2023-04-21T09:54:40.742Z,100572.28
2023-04-21T09:57:13.610Z,100567.14
2023-04-21T09:59:46.345Z,100562.97
2023-04-21T10:02:13.899Z,100570.68
2023-04-21T10:04:43.895Z,100566.61
2023-04-21T10:07:11.743Z,100565.83
2023-04-21T10:09:54.751Z,100558.45
2023-04-21T10:12:22.746Z,100553.36
2023-04-21T10:14:56.937Z,100554.67
2023-04-21T10:17:25.485Z,100546.20
2023-04-21T10:19:59.116Z,100546.64
2023-04-21T10:22:33.873Z,100546.83
2023-04-21T10:25:03.558Z,100547.09
2023-04-21T10:27:40.625Z,100536.56
2023-04-21T10:30:22.454Z,100536.16
2023-04-21T10:33:01.831Z,100536.27
2023-04-21T10:36:01.044Z,100532.08
2023-04-21T10:38:35.698Z,100532.40
2023-04-21T10:41:27.727Z,100531.07
2023-04-21T10:43:54.715Z,100529.40
2023-04-21T10:46:35.142Z,100529.40
2023-04-21T10:49:23.787Z,100526.88
2023-04-21T10:51:59.710Z,100517.33
2023-04-21T10:54:28.365Z,100517.58
2023-04-21T10:56:56.726Z,100515.52
2023-04-21T10:59:25.220Z,100511.90
2023-04-21T11:01:52.536Z,100501.40
2023-04-21T11:04:23.148Z,100504.41
2023-04-21T11:07:11.967Z,100502.14
2023-04-21T11:09:40.045Z,100498.73
2023-04-21T11:12:10.861Z,100494.50
2023-04-21T11:14:40.428Z,100490.73
2023-04-21T11:17:16.149Z,100487.18
2023-04-21T11:19:54.399Z,100484.70
2023-04-21T11:22:23.884Z,100481.89
2023-04-21T11:24:54.284Z,100479.91
2023-04-21T11:28:00.409Z,100475.27
2023-04-21T11:30:34.869Z,100473.14
2023-04-21T11:33:01.818Z,100462.29
2023-04-21T11:35:32.158Z,100457.98
2023-04-21T11:37:58.900Z,100457.27
2023-04-21T11:40:25.633Z,100459.98
2023-04-21T11:42:52.756Z,100453.97
2023-04-21T11:45:22.532Z,100458.64
2023-04-21T11:47:49.514Z,100456.28
2023-04-21T11:50:31.614Z,100452.46
2023-04-21T11:52:58.340Z,100456.08
2023-04-21T11:55:25.001Z,100457.77
2023-04-21T11:57:51.572Z,100449.02
2023-04-21T12:00:19.017Z,100445.96
2023-04-21T12:02:54.616Z,100441.68
2023-04-21T12:05:22.354Z,100435.78
2023-04-21T12:07:48.910Z,100439.54
2023-04-21T12:10:19.250Z,100433.93
2023-04-21T12:12:46.520Z,100431.98
2023-04-21T12:15:20.156Z,100427.64
2023-04-21T12:17:48.965Z,100425.40
2023-04-21T12:20:16.686Z,100425.91
2023-04-21T12:22:43.739Z,100422.90
2023-04-21T12:25:10.509Z,100421.18
2023-04-21T12:27:37.256Z,100409.42
2023-04-21T12:30:04.681Z,100405.06
2023-04-21T12:32:31.415Z,100401.27
2023-04-21T12:34:58.126Z,100399.56
2023-04-21T12:37:24.712Z,100398.52
2023-04-21T12:39:51.263Z,100396.75
2023-04-21T12:42:17.811Z,100395.34
2023-04-21T12:44:45.688Z,100393.10
2023-04-21T12:47:12.305Z,100386.42
2023-04-21T12:49:39.146Z,100377.08
2023-04-21T12:52:06.261Z,100376.70
2023-04-21T12:54:33.835Z,100381.17
2023-04-21T12:57:00.704Z,100381.23
2023-04-21T12:59:27.490Z,100382.77
2023-04-21T13:01:54.984Z,100377.17
2023-04-21T13:04:21.932Z,100376.98
2023-04-21T13:06:48.970Z,100371.73
2023-04-21T13:09:17.038Z,100365.14
2023-04-21T13:11:43.751Z,100360.73
2023-04-21T13:14:11.003Z,100353.58
2023-04-21T13:16:37.972Z,100361.13
2023-04-21T13:19:05.003Z,100355.56
2023-04-21T13:21:32.761Z,100354.83
2023-04-21T13:23:59.408Z,100348.31
2023-04-21T13:26:27.070Z,100345.23
2023-04-21T13:28:53.827Z,100351.42
2023-04-21T13:31:20.651Z,100344.48
2023-04-21T13:33:47.359Z,100345.07
2023-04-21T13:36:14.069Z,100343.70
2023-04-21T13:38:41.091Z,100340.45
2023-04-21T13:41:08.693Z,100338.77
2023-04-21T13:43:35.850Z,100339.23
2023-04-21T13:46:02.529Z,100338.91
2023-04-21T13:48:29.945Z,100336.11
2023-04-21T13:50:56.723Z,100331.01
2023-04-21T13:53:26.990Z,100327.33
2023-04-21T13:55:56.908Z,100325.44
2023-04-21T13:58:23.689Z,100328.27
2023-04-21T14:00:50.453Z,100324.38
2023-04-21T14:03:17.325Z,100318.12
2023-04-21T14:05:44.101Z,100317.37
2023-04-21T14:08:11.082Z,100311.66
2023-04-21T14:10:37.863Z,100307.91
2023-04-21T14:13:05.279Z,100307.89
2023-04-21T14:15:32.192Z,100306.03
2023-04-21T14:17:58.944Z,100302.13
2023-04-21T14:20:25.904Z,100303.09
2023-04-21T14:22:52.477Z,100303.05
2023-04-21T14:25:19.239Z,100304.42
2023-04-21T14:27:45.912Z,100302.86
2023-04-21T14:30:13.896Z,100295.09
2023-04-21T14:32:45.651Z,100292.06
2023-04-21T14:35:13.133Z,100294.38
2023-04-21T14:37:40.724Z,100290.70
2023-04-21T14:40:08.809Z,100287.13
2023-04-21T14:42:36.129Z,100287.11
2023-04-21T14:45:02.854Z,100284.05
2023-04-21T14:47:29.742Z,100279.22
2023-04-21T14:49:57.017Z,100281.52
2023-04-21T14:52:27.231Z,100276.30
2023-04-21T14:54:53.960Z,100271.67
2023-04-21T14:57:21.933Z,100270.00
2023-04-21T14:59:50.559Z,100271.29
2023-04-21T15:02:18.020Z,100273.77
2023-04-21T15:04:45.049Z,100272.25
2023-04-21T15:07:12.481Z,100272.34
2023-04-21T15:09:39.405Z,100269.22
2023-04-21T15:12:06.485Z,100269.32
2023-04-21T15:14:33.286Z,100267.09
2023-04-21T15:17:00.212Z,100268.23
2023-04-21T15:19:26.956Z,100264.13
2023-04-21T15:21:53.764Z,100261.64
2023-04-21T15:24:20.603Z,100260.79
2023-04-21T15:26:47.366Z,100262.85
2023-04-21T15:29:14.289Z,100259.48
2023-04-21T15:31:41.163Z,100255.60
2023-04-21T15:34:08.805Z,100251.16
2023-04-21T15:36:35.894Z,100251.13
2023-04-21T15:39:03.041Z,100249.48
2023-04-21T15:41:31.736Z,100244.86
2023-04-21T15:44:00.283Z,100243.94
2023-04-21T15:46:26.989Z,100244.95
2023-04-21T15:48:53.929Z,100243.44
2023-04-21T15:51:20.903Z,100242.52
2023-04-21T15:53:49.650Z,100243.10
2023-04-21T15:56:17.923Z,100245.20
2023-04-21T15:58:44.982Z,100244.79
2023-04-21T16:01:12.343Z,100241.27
2023-04-21T16:03:40.238Z,100238.29
2023-04-21T16:06:07.740Z,100241.11
2023-04-21T16:08:34.563Z,100237.50
2023-04-21T16:11:01.796Z,100237.92
2023-04-21T16:13:29.339Z,100238.93
2023-04-21T16:15:56.467Z,100232.03
2023-04-21T16:18:23.296Z,100235.96
2023-04-21T16:20:50.518Z,100234.21
2023-04-21T16:23:17.252Z,100239.17
2023-04-21T16:25:44.024Z,100237.80
2023-04-21T16:28:11.660Z,100236.94
2023-04-21T16:30:43.173Z,100237.67
2023-04-21T16:33:14.607Z,100237.06
2023-04-21T16:35:41.659Z,100237.41
2023-04-21T16:38:08.731Z,100237.89
2023-04-21T16:40:35.370Z,100234.88
2023-04-21T16:43:02.284Z,100234.41
2023-04-21T16:45:29.866Z,100234.96
2023-04-21T16:47:57.793Z,100233.45
2023-04-21T16:50:24.797Z,100229.55
2023-04-21T16:52:51.573Z,100229.36
2023-04-21T16:55:18.792Z,100226.48
2023-04-21T16:57:45.573Z,100228.99
2023-04-21T17:00:13.741Z,100225.17
2023-04-21T17:02:40.433Z,100226.16
2023-04-21T17:05:07.590Z,100228.95
2023-04-21T17:07:34.406Z,100230.89
2023-04-21T17:10:01.389Z,100231.80
2023-04-21T17:12:27.958Z,100233.70
2023-04-21T17:14:54.532Z,100232.27
2023-04-21T17:17:21.196Z,100230.92
2023-04-21T17:19:48.341Z,100231.55
2023-04-21T17:22:14.922Z,100232.81
2023-04-21T17:24:52.546Z,100234.46
2023-04-21T17:27:20.904Z,100239.39
2023-04-21T17:29:47.744Z,100237.11
2023-04-21T17:32:14.470Z,100237.55
2023-04-21T17:34:41.229Z,100232.67
2023-04-21T17:37:08.000Z,100233.38
2023-04-21T17:39:34.620Z,100230.77
2023-04-21T17:42:02.590Z,100235.04
2023-04-21T17:44:29.435Z,100242.08
2023-04-21T17:46:56.636Z,100240.63
2023-04-21T17:49:24.849Z,100241.23
2023-04-21T17:51:51.710Z,100243.79
2023-04-21T17:54:18.395Z,100245.88
2023-04-21T17:56:47.902Z,100244.81
2023-04-21T17:59:14.929Z,100243.14
2023-04-21T18:01:41.570Z,100245.73
2023-04-21T18:04:08.594Z,100250.29
2023-04-21T18:06:36.692Z,100250.97
2023-04-21T18:09:05.232Z,100256.08
2023-04-21T18:11:32.016Z,100256.45
2023-04-21T18:13:59.044Z,100256.16
2023-04-21T18:16:26.436Z,100256.02
2023-04-21T18:18:53.368Z,100252.14
2023-04-21T18:21:20.781Z,100253.22
2023-04-21T18:23:47.414Z,100255.59
2023-04-21T18:26:14.059Z,100257.91
2023-04-21T18:28:40.653Z,100259.58
2023-04-21T18:31:07.267Z,100260.23
2023-04-21T18:33:34.497Z,100262.05
2023-04-21T18:36:01.257Z,100261.22
2023-04-21T18:38:27.853Z,100259.67
2023-04-21T18:40:55.753Z,100260.69
2023-04-21T18:43:22.616Z,100258.75
2023-04-21T18:45:49.264Z,100257.81
2023-04-21T18:48:15.922Z,100254.40
2023-04-21T18:50:42.868Z,100259.44
2023-04-21T18:53:09.595Z,100257.20
2023-04-21T18:55:37.405Z,100254.65
2023-04-21T18:58:04.333Z,100254.48
2023-04-21T19:00:32.316Z,100253.16
2023-04-21T19:03:04.111Z,100249.08
2023-04-21T19:05:31.961Z,100249.35
2023-04-21T19:07:58.897Z,100252.34
2023-04-21T19:10:26.684Z,100253.79
2023-04-21T19:12:53.771Z,100253.09
2023-04-21T19:15:22.151Z,100249.96
2023-04-21T19:17:48.725Z,100249.39
2023-04-21T19:20:15.702Z,100251.31
2023-04-21T19:22:42.396Z,100252.02
2023-04-21T19:25:09.853Z,100249.27
2023-04-21T19:27:36.949Z,100248.27
2023-04-21T19:30:05.068Z,100249.89
2023-04-21T19:32:31.847Z,100249.73
2023-04-21T19:34:58.696Z,100247.57
2023-04-21T19:37:26.492Z,100247.58
2023-04-21T19:39:53.261Z,100248.84
2023-04-21T19:42:19.958Z,100250.35
2023-04-21T19:44:46.670Z,100248.81
2023-04-21T19:47:13.572Z,100250.38
2023-04-21T19:49:40.527Z,100254.00
2023-04-21T19:52:07.143Z,100252.08
2023-04-21T19:54:34.062Z,100253.36
2023-04-21T19:57:01.736Z,100253.02
2023-04-21T19:59:28.607Z,100253.33
2023-04-21T20:01:55.468Z,100254.32
2023-04-21T20:04:22.574Z,100252.66
2023-04-21T20:06:49.401Z,100256.02
2023-04-21T20:09:16.111Z,100256.63
2023-04-21T20:11:43.801Z,100257.21
2023-04-21T20:14:10.728Z,100256.05
2023-04-21T20:16:37.862Z,100262.61
2023-04-21T20:19:04.638Z,100258.76
2023-04-21T20:21:32.418Z,100260.06
2023-04-21T20:23:59.142Z,100259.02
2023-04-21T20:26:26.123Z,100254.79
2023-04-21T20:28:52.768Z,100259.11
2023-04-21T20:31:23.594Z,100259.45
2023-04-21T20:33:50.481Z,100264.04
2023-04-21T20:36:17.760Z,100266.70
2023-04-21T20:38:46.423Z,100266.04
2023-04-21T20:41:13.593Z,100264.30
2023-04-21T20:43:40.599Z,100262.94
2023-04-21T20:46:08.775Z,100265.95
2023-04-21T20:48:35.546Z,100266.43
2023-04-21T20:51:02.799Z,100263.33
2023-04-21T20:53:29.425Z,100260.19
2023-04-21T20:55:56.340Z,100260.05
2023-04-21T20:58:24.474Z,100262.04
2023-04-21T21:00:51.480Z,100262.52
2023-04-21T21:03:21.022Z,100263.27
2023-04-21T21:05:47.996Z,100262.70
2023-04-21T21:08:15.232Z,100260.94
2023-04-21T21:10:42.480Z,100259.84
2023-04-21T21:13:09.168Z,100260.28
2023-04-21T21:15:35.988Z,100256.68
2023-04-21T21:18:04.662Z,100256.63
2023-04-21T21:20:31.533Z,100254.63
2023-04-21T21:22:58.160Z,100255.02
2023-04-21T21:25:25.077Z,100258.60
2023-04-21T21:27:51.780Z,100254.97
2023-04-21T21:30:18.610Z,100255.06
2023-04-21T21:32:49.559Z,100258.04
2023-04-21T21:35:16.716Z,100253.77
2023-04-21T21:37:43.325Z,100255.05
2023-04-21T21:40:11.038Z,100249.84
2023-04-21T21:42:39.100Z,100248.65
2023-04-21T21:45:06.717Z,100246.20
2023-04-21T21:47:36.487Z,100252.58
2023-04-21T21:50:05.840Z,100252.29
2023-04-21T21:52:32.450Z,100255.77
2023-04-21T21:54:59.098Z,100256.73
2023-04-21T21:57:25.805Z,100254.20
2023-04-21T21:59:52.641Z,100255.42
2023-04-21T22:02:19.311Z,100256.45
2023-04-21T22:04:46.121Z,100255.26
2023-04-21T22:07:12.733Z,100255.05
2023-04-21T22:09:40.040Z,100256.56
2023-04-21T22:12:07.387Z,100255.94
2023-04-21T22:14:34.269Z,100253.86
2023-04-21T22:17:00.943Z,100255.73
2023-04-21T22:19:27.564Z,100256.53
2023-04-21T22:21:54.353Z,100256.34
2023-04-21T22:24:21.256Z,100253.61
2023-04-21T22:26:48.207Z,100251.34
2023-04-21T22:29:14.802Z,100248.71
2023-04-21T22:31:41.618Z,100246.65
2023-04-21T22:34:08.564Z,100247.95
2023-04-21T22:36:35.204Z,100246.41
2023-04-21T22:39:01.972Z,100246.25
2023-04-21T22:41:28.632Z,100248.99
2023-04-21T22:43:57.746Z,100245.98
2023-04-21T22:46:24.390Z,100245.36
2023-04-21T22:48:54.122Z,100249.26
2023-04-21T22:51:21.575Z,100246.98
2023-04-21T22:53:48.196Z,100244.33
2023-04-21T22:56:15.171Z,100242.61
2023-04-21T22:58:42.812Z,100244.89
2023-04-21T23:01:09.662Z,100244.07
2023-04-21T23:03:37.104Z,100241.99
2023-04-21T23:06:04.011Z,100239.17
2023-04-21T23:08:30.535Z,100240.65
2023-04-21T23:10:57.563Z,100241.70
2023-04-21T23:13:24.206Z,100239.77
2023-04-21T23:15:50.754Z,100237.33
2023-04-21T23:18:17.445Z,100237.69
2023-04-21T23:20:44.118Z,100239.58
2023-04-21T23:23:10.707Z,100242.23
2023-04-21T23:25:37.364Z,100246.87
2023-04-21T23:28:03.999Z,100238.64
2023-04-21T23:30:30.649Z,100236.09
2023-04-21T23:32:57.588Z,100242.77
2023-04-21T23:35:24.230Z,100247.30
2023-04-21T23:37:50.744Z,100246.09
2023-04-21T23:40:17.432Z,100244.96
2023-04-21T23:42:47.537Z,100245.44
2023-04-21T23:45:14.675Z,100244.34
2023-04-21T23:47:41.490Z,100242.12
2023-04-21T23:50:08.294Z,100244.25
2023-04-21T23:52:35.001Z,100249.63
2023-04-21T23:55:01.645Z,100250.48
2023-04-21T23:57:28.349Z,100249.70
2023-04-21T23:59:54.869Z,100245.73
